Time;durP1;ratioP1;P1;durP2;ratioP2;P2;SDS_P1;SDS_P2;PMS_P1;PMS_P2;Temp;Humidity;BMP_temperature;BMP_pressure;BME280_temperature;BME280_humidity;BME280_pressure;Samples;Min_cycle;Max_cycle;Signal;HPM_P1;HPM_P2
2023/06/22 00:01:22;;;;;;;;;;;12.10;99.90;;;;;;5077444;28;19995;-67
2023/06/22 00:03:48;;;;;;;;;;;12.30;99.90;;;;;;5090568;28;20250;-64
2023/06/22 00:06:15;;;;;;;;;;;12.10;99.90;;;;;;5092978;28;19912;-64
2023/06/22 00:08:42;;;;;;;;;;;12.20;99.90;;;;;;5093405;28;19916;-67
2023/06/22 00:11:08;;;;;;;;;;;12.20;99.90;;;;;;5080612;28;19958;-67
2023/06/22 00:13:35;;;;;;;;;;;12.30;99.90;;;;;;5093179;28;19908;-64
2023/06/22 00:16:02;;;;;;;;;;;12.30;99.90;;;;;;5092149;28;19912;-68
2023/06/22 00:18:30;;;;;;;;;;;12.40;99.90;;;;;;5093199;28;20360;-67
2023/06/22 00:20:57;;;;;;;;;;;12.30;99.90;;;;;;5089611;28;19962;-68
2023/06/22 00:23:24;;;;;;;;;;;12.40;99.90;;;;;;5093471;28;19912;-67
2023/06/22 00:25:51;;;;;;;;;;;12.60;99.90;;;;;;5093075;28;19908;-67
2023/06/22 00:28:18;;;;;;;;;;;12.70;99.90;;;;;;5093018;28;19984;-66
2023/06/22 00:30:45;;;;;;;;;;;12.80;99.90;;;;;;5093258;28;19969;-67
2023/06/22 00:33:12;;;;;;;;;;;13.00;99.90;;;;;;5084914;28;19916;-67
2023/06/22 00:35:41;;;;;;;;;;;13.20;99.90;;;;;;5073030;28;19914;-67
2023/06/22 00:38:08;;;;;;;;;;;13.40;99.40;;;;;;5072511;28;19909;-67
2023/06/22 00:40:34;;;;;;;;;;;13.40;99.00;;;;;;5090918;28;20463;-66
2023/06/22 00:43:01;;;;;;;;;;;13.70;98.90;;;;;;5083035;28;19920;-68
2023/06/22 00:45:28;;;;;;;;;;;13.70;98.80;;;;;;5091765;28;19912;-67
2023/06/22 00:47:57;;;;;;;;;;;13.60;98.40;;;;;;5092006;28;19916;-68
2023/06/22 00:50:33;;;;;;;;;;;13.70;98.50;;;;;;5083069;28;20306;-67
2023/06/22 00:53:00;;;;;;;;;;;13.60;98.60;;;;;;5080484;28;20326;-66
2023/06/22 00:55:27;;;;;;;;;;;13.60;98.60;;;;;;5091715;28;20369;-65
2023/06/22 00:57:57;;;;;;;;;;;13.60;98.60;;;;;;5091938;28;19947;-66
2023/06/22 01:00:24;;;;;;;;;;;13.70;98.60;;;;;;5092770;28;19908;-64
2023/06/22 01:02:52;;;;;;;;;;;13.90;98.60;;;;;;5091667;28;19958;-65
2023/06/22 01:05:19;;;;;;;;;;;14.00;98.80;;;;;;5092165;28;20342;-65
2023/06/22 01:08:06;;;;;;;;;;;14.20;98.60;;;;;;5090795;28;20356;-64
2023/06/22 01:10:32;;;;;;;;;;;14.40;98.90;;;;;;5071330;28;19919;-65
2023/06/22 01:13:04;;;;;;;;;;;14.60;98.70;;;;;;5072382;28;19958;-65
2023/06/22 01:15:34;;;;;;;;;;;14.80;98.60;;;;;;5091869;28;19918;-66
2023/06/22 01:18:03;;;;;;;;;;;15.00;98.50;;;;;;5089426;28;19920;-65
2023/06/22 01:20:31;;;;;;;;;;;15.30;98.00;;;;;;5096891;28;20241;-64
2023/06/22 01:23:06;;;;;;;;;;;15.40;96.90;;;;;;5093358;28;19957;-65
2023/06/22 01:25:37;;;;;;;;;;;15.30;96.70;;;;;;5092581;28;20059;-63
2023/06/22 01:28:18;;;;;;;;;;;15.40;96.50;;;;;;5092406;28;19954;-64
2023/06/22 01:30:46;;;;;;;;;;;15.40;97.20;;;;;;5091845;28;19998;-64
2023/06/22 01:33:13;;;;;;;;;;;15.50;97.00;;;;;;5091395;28;20049;-64
2023/06/22 01:35:40;;;;;;;;;;;15.70;97.00;;;;;;5091731;28;19953;-66
2023/06/22 01:38:08;;;;;;;;;;;15.70;96.80;;;;;;5092390;28;19947;-68
2023/06/22 01:40:35;;;;;;;;;;;15.80;96.50;;;;;;5081819;28;19912;-68
2023/06/22 01:43:02;;;;;;;;;;;15.80;95.80;;;;;;5083137;28;19920;-67
2023/06/22 01:45:30;;;;;;;;;;;15.70;96.20;;;;;;5092362;28;19912;-67
2023/06/22 01:47:57;;;;;;;;;;;15.70;96.40;;;;;;5091753;28;19916;-65
2023/06/22 01:50:24;;;;;;;;;;;15.80;96.50;;;;;;5091905;28;19916;-64
2023/06/22 01:52:50;;;;;;;;;;;15.70;96.30;;;;;;5091167;28;19914;-63
2023/06/22 01:55:17;;;;;;;;;;;15.70;96.60;;;;;;5088281;28;19912;-66
2023/06/22 01:57:44;;;;;;;;;;;15.60;96.60;;;;;;5092218;28;19951;-68
2023/06/22 02:00:12;;;;;;;;;;;15.60;96.80;;;;;;5091616;28;20415;-64
2023/06/22 02:03:00;;;;;;;;;;;15.50;96.60;;;;;;5092294;28;19919;-67
2023/06/22 02:05:29;;;;;;;;;;;15.40;97.10;;;;;;5092005;28;19951;-69
2023/06/22 02:08:02;;;;;;;;;;;15.40;97.40;;;;;;5095819;28;19955;-67
2023/06/22 02:10:29;;;;;;;;;;;15.60;97.20;;;;;;5095913;28;19951;-64
2023/06/22 02:12:57;;;;;;;;;;;15.60;97.00;;;;;;5077696;28;19962;-65
2023/06/22 02:15:24;;;;;;;;;;;15.70;96.50;;;;;;5075924;28;19913;-66
2023/06/22 02:17:50;;;;;;;;;;;15.70;96.70;;;;;;5075699;28;19909;-67
2023/06/22 02:20:17;;;;;;;;;;;15.90;96.80;;;;;;5075129;28;19956;-66
2023/06/22 02:22:44;;;;;;;;;;;16.00;96.50;;;;;;5086748;28;19945;-68
2023/06/22 02:25:11;;;;;;;;;;;16.00;96.10;;;;;;5095390;28;19908;-67
2023/06/22 02:27:40;;;;;;;;;;;16.10;96.10;;;;;;5090482;28;19908;-64
2023/06/22 02:30:10;;;;;;;;;;;16.20;96.40;;;;;;5085361;28;19916;-65
2023/06/22 02:32:37;;;;;;;;;;;16.30;96.10;;;;;;5093749;28;19927;-65
2023/06/22 02:35:04;;;;;;;;;;;16.30;96.50;;;;;;5094415;28;19991;-67
2023/06/22 02:37:31;;;;;;;;;;;16.30;96.50;;;;;;5094907;28;19919;-65
2023/06/22 02:39:58;;;;;;;;;;;16.20;96.40;;;;;;5094737;28;20258;-68
2023/06/22 02:42:25;;;;;;;;;;;16.10;96.70;;;;;;5094519;28;20377;-68
2023/06/22 02:44:51;;;;;;;;;;;16.00;96.80;;;;;;5095189;28;20403;-67
2023/06/22 02:47:18;;;;;;;;;;;16.00;97.00;;;;;;5093671;28;19908;-65
2023/06/22 02:49:45;;;;;;;;;;;15.90;97.30;;;;;;5091769;28;19932;-63
2023/06/22 02:52:12;;;;;;;;;;;16.00;97.50;;;;;;5093292;28;19960;-63
2023/06/22 02:54:39;;;;;;;;;;;16.10;97.40;;;;;;5076148;28;20333;-65
2023/06/22 02:57:05;;;;;;;;;;;16.30;96.80;;;;;;5094619;28;20254;-66
2023/06/22 02:59:32;;;;;;;;;;;16.40;97.00;;;;;;5076133;28;19915;-64
2023/06/22 03:01:59;;;;;;;;;;;16.50;96.70;;;;;;5076360;28;19919;-63
2023/06/22 03:04:25;;;;;;;;;;;16.60;96.50;;;;;;5094699;28;19908;-66
2023/06/22 03:06:52;;;;;;;;;;;16.60;96.00;;;;;;5094965;28;19914;-65
2023/06/22 03:09:18;;;;;;;;;;;16.50;96.40;;;;;;5093765;28;19924;-67
2023/06/22 03:11:45;;;;;;;;;;;16.50;96.40;;;;;;5093879;28;19912;-62
2023/06/22 03:14:12;;;;;;;;;;;16.50;96.50;;;;;;5094968;28;20315;-66
2023/06/22 03:16:40;;;;;;;;;;;16.50;96.70;;;;;;5095960;28;19904;-66
2023/06/22 03:19:07;;;;;;;;;;;16.40;96.40;;;;;;5095119;28;19908;-63
2023/06/22 03:21:34;;;;;;;;;;;16.40;96.40;;;;;;5095766;28;19914;-67
2023/06/22 03:24:00;;;;;;;;;;;16.30;96.50;;;;;;5093188;28;20003;-63
2023/06/22 03:26:27;;;;;;;;;;;16.30;96.60;;;;;;5094688;28;19908;-65
2023/06/22 03:28:53;;;;;;;;;;;16.20;96.60;;;;;;5093899;28;20392;-65
2023/06/22 03:31:21;;;;;;;;;;;16.20;96.80;;;;;;5079481;28;19912;-67
2023/06/22 03:33:49;;;;;;;;;;;16.10;97.10;;;;;;5083344;28;20269;-67
2023/06/22 03:36:19;;;;;;;;;;;16.00;97.40;;;;;;5082387;28;19917;-66
2023/06/22 03:38:46;;;;;;;;;;;15.80;97.70;;;;;;5074156;28;19909;-66
2023/06/22 03:41:12;;;;;;;;;;;15.70;97.90;;;;;;5089001;28;19908;-68
2023/06/22 03:43:39;;;;;;;;;;;15.60;98.20;;;;;;5093866;28;19924;-67
2023/06/22 03:46:06;;;;;;;;;;;15.50;98.40;;;;;;5093902;28;19969;-67
2023/06/22 03:48:32;;;;;;;;;;;15.40;98.60;;;;;;5093641;28;19912;-69
2023/06/22 03:51:03;;;;;;;;;;;15.40;98.60;;;;;;5080209;28;20253;-66
2023/06/22 03:53:29;;;;;;;;;;;15.30;98.50;;;;;;5079912;28;19963;-67
2023/06/22 03:55:56;;;;;;;;;;;15.30;98.70;;;;;;5094068;28;19908;-67
2023/06/22 03:58:23;;;;;;;;;;;15.20;98.90;;;;;;5093345;28;20033;-67
2023/06/22 04:00:50;;;;;;;;;;;15.20;98.80;;;;;;5093713;28;19915;-67
2023/06/22 04:03:20;;;;;;;;;;;15.10;99.00;;;;;;5093285;28;20288;-68
2023/06/22 04:05:48;;;;;;;;;;;15.10;99.00;;;;;;5093863;28;19915;-68
2023/06/22 04:08:16;;;;;;;;;;;15.10;99.20;;;;;;5093857;28;19927;-65
2023/06/22 04:10:43;;;;;;;;;;;15.10;99.40;;;;;;5084043;28;20339;-67
2023/06/22 04:13:09;;;;;;;;;;;15.10;99.50;;;;;;5073279;28;20281;-66
2023/06/22 04:15:36;;;;;;;;;;;15.10;99.60;;;;;;5073367;28;19909;-67
2023/06/22 04:18:03;;;;;;;;;;;15.10;99.70;;;;;;5073155;28;19939;-73
2023/06/22 04:20:32;;;;;;;;;;;15.10;99.50;;;;;;5076980;28;19912;-69
2023/06/22 04:22:58;;;;;;;;;;;15.10;99.60;;;;;;5093623;28;19938;-69
2023/06/22 04:25:25;;;;;;;;;;;15.10;99.70;;;;;;5092416;28;19912;-69
2023/06/22 04:27:52;;;;;;;;;;;15.10;99.80;;;;;;5093121;28;20019;-67
2023/06/22 04:30:18;;;;;;;;;;;15.10;99.80;;;;;;5091626;28;19924;-69
2023/06/22 04:32:45;;;;;;;;;;;14.90;99.90;;;;;;5089275;28;19923;-68
2023/06/22 04:35:12;;;;;;;;;;;15.00;99.80;;;;;;5089390;28;20053;-67
2023/06/22 04:37:39;;;;;;;;;;;14.90;99.80;;;;;;5092832;28;20383;-69
2023/06/22 04:40:06;;;;;;;;;;;14.80;99.90;;;;;;5092484;28;19912;-69
2023/06/22 04:42:34;;;;;;;;;;;14.90;99.90;;;;;;5091971;28;19994;-70
2023/06/22 04:45:01;;;;;;;;;;;14.90;99.90;;;;;;5092742;28;19912;-68
2023/06/22 04:47:27;;;;;;;;;;;14.90;99.90;;;;;;5093219;28;19999;-70
2023/06/22 04:49:54;;;;;;;;;;;14.80;99.90;;;;;;5087737;28;20424;-69
2023/06/22 04:52:21;;;;;;;;;;;14.90;99.90;;;;;;5092786;28;19912;-68
2023/06/22 04:54:48;;;;;;;;;;;14.90;99.90;;;;;;5086826;28;19915;-68
2023/06/22 04:57:15;;;;;;;;;;;14.80;99.90;;;;;;5087836;28;20384;-68
2023/06/22 04:59:42;;;;;;;;;;;14.80;99.90;;;;;;5091174;28;19915;-68
2023/06/22 05:02:09;;;;;;;;;;;14.90;99.90;;;;;;5092100;28;19912;-71
2023/06/22 05:04:38;;;;;;;;;;;14.90;99.90;;;;;;5092824;28;19978;-69
2023/06/22 05:07:04;;;;;;;;;;;14.80;99.90;;;;;;5090930;28;19916;-68
2023/06/22 05:09:31;;;;;;;;;;;14.70;99.90;;;;;;5091443;28;19920;-69
2023/06/22 05:11:59;;;;;;;;;;;14.70;99.90;;;;;;5092243;28;19908;-72
2023/06/22 05:14:26;;;;;;;;;;;14.70;99.90;;;;;;5085271;28;20002;-72
2023/06/22 05:16:52;;;;;;;;;;;14.60;99.90;;;;;;5092081;28;20372;-68
2023/06/22 05:19:19;;;;;;;;;;;14.60;99.90;;;;;;5091161;28;20361;-72
2023/06/22 05:21:46;;;;;;;;;;;14.60;99.90;;;;;;5091224;28;20437;-70
2023/06/22 05:24:12;;;;;;;;;;;14.50;99.90;;;;;;5091649;28;20014;-70
2023/06/22 05:26:39;;;;;;;;;;;14.50;99.90;;;;;;5091498;28;19908;-71
2023/06/22 05:29:06;;;;;;;;;;;14.50;99.90;;;;;;5090356;28;20288;-72
2023/06/22 05:31:33;;;;;;;;;;;14.40;99.90;;;;;;5054487;28;20359;-70
2023/06/22 05:34:00;;;;;;;;;;;14.30;99.90;;;;;;5075196;28;20024;-70
2023/06/22 05:36:27;;;;;;;;;;;14.30;99.90;;;;;;5090040;28;19958;-67
2023/06/22 05:38:53;;;;;;;;;;;14.20;99.90;;;;;;5090575;28;19908;-73
2023/06/22 05:41:20;;;;;;;;;;;14.30;99.90;;;;;;5077625;28;20384;-70
2023/06/22 05:43:47;;;;;;;;;;;14.20;99.90;;;;;;5089508;28;19942;-73
2023/06/22 05:46:13;;;;;;;;;;;14.20;99.90;;;;;;5092748;28;19908;-69
2023/06/22 05:48:40;;;;;;;;;;;14.10;99.90;;;;;;5092544;28;20016;-72
2023/06/22 05:51:07;;;;;;;;;;;14.10;99.90;;;;;;5093034;28;19909;-72
2023/06/22 05:53:34;;;;;;;;;;;14.10;99.90;;;;;;5093043;28;19915;-71
2023/06/22 05:56:00;;;;;;;;;;;14.10;99.90;;;;;;5061750;28;19916;-71
2023/06/22 05:58:27;;;;;;;;;;;14.20;99.90;;;;;;5072664;28;20273;-69
2023/06/22 06:00:53;;;;;;;;;;;14.00;99.90;;;;;;5072146;28;19909;-71
2023/06/22 06:03:20;;;;;;;;;;;14.00;99.90;;;;;;5087879;28;20265;-71
2023/06/22 06:05:47;;;;;;;;;;;14.00;99.90;;;;;;5091987;28;19909;-71
2023/06/22 06:08:14;;;;;;;;;;;13.90;99.90;;;;;;5091795;28;19935;-73
2023/06/22 06:10:40;;;;;;;;;;;13.90;99.90;;;;;;5091955;28;19962;-71
2023/06/22 06:13:07;;;;;;;;;;;13.80;99.90;;;;;;5092036;28;19908;-69
2023/06/22 06:15:34;;;;;;;;;;;13.80;99.90;;;;;;5091810;28;20288;-69
2023/06/22 06:18:04;;;;;;;;;;;13.70;99.90;;;;;;5090938;28;19918;-62
2023/06/22 06:20:31;;;;;;;;;;;13.70;99.90;;;;;;5092699;28;19909;-64
2023/06/22 06:22:58;;;;;;;;;;;13.70;99.90;;;;;;5092643;28;19961;-68
2023/06/22 06:25:25;;;;;;;;;;;13.50;99.90;;;;;;5092722;28;20254;-64
2023/06/22 06:27:54;;;;;;;;;;;13.50;99.90;;;;;;5092277;28;19966;-68
2023/06/22 06:30:21;;;;;;;;;;;13.30;99.90;;;;;;5083346;28;19917;-61
2023/06/22 06:32:48;;;;;;;;;;;13.20;99.90;;;;;;5072140;28;19912;-66
2023/06/22 06:35:18;;;;;;;;;;;13.10;99.90;;;;;;5072472;28;19909;-64
2023/06/22 06:37:46;;;;;;;;;;;13.00;99.90;;;;;;5072033;28;20385;-67
2023/06/22 06:40:13;;;;;;;;;;;12.90;99.90;;;;;;5072166;28;19919;-64
2023/06/22 06:42:41;;;;;;;;;;;12.90;99.90;;;;;;5072185;28;19981;-73
2023/06/22 06:45:08;;;;;;;;;;;12.80;99.90;;;;;;5072044;28;20368;-64
2023/06/22 06:47:35;;;;;;;;;;;12.70;99.90;;;;;;5071987;28;20372;-64
2023/06/22 06:50:02;;;;;;;;;;;12.70;99.90;;;;;;5072409;28;19912;-63
2023/06/22 06:52:29;;;;;;;;;;;12.70;99.90;;;;;;5081590;28;19916;-63
2023/06/22 06:54:56;;;;;;;;;;;12.60;99.90;;;;;;5095590;28;19982;-63
2023/06/22 06:57:22;;;;;;;;;;;12.70;99.90;;;;;;5094538;28;19908;-63
2023/06/22 06:59:49;;;;;;;;;;;12.60;99.90;;;;;;5075647;28;20404;-64
2023/06/22 07:02:16;;;;;;;;;;;12.50;99.90;;;;;;5075201;28;19912;-65
2023/06/22 07:04:43;;;;;;;;;;;12.50;99.90;;;;;;5075449;28;19946;-62
2023/06/22 07:07:09;;;;;;;;;;;12.40;99.90;;;;;;5075868;28;20299;-62
2023/06/22 07:09:36;;;;;;;;;;;12.50;99.90;;;;;;5075324;28;19920;-63
2023/06/22 07:12:03;;;;;;;;;;;12.30;99.90;;;;;;5075438;28;19909;-69
2023/06/22 07:14:31;;;;;;;;;;;12.40;99.90;;;;;;5075613;28;19958;-65
2023/06/22 07:16:58;;;;;;;;;;;12.30;99.90;;;;;;5075044;28;19909;-69
2023/06/22 07:19:25;;;;;;;;;;;12.30;99.90;;;;;;5083938;28;20328;-64
2023/06/22 07:21:53;;;;;;;;;;;12.30;99.90;;;;;;5095145;28;20006;-62
2023/06/22 07:24:20;;;;;;;;;;;12.30;99.90;;;;;;5095456;28;20372;-64
2023/06/22 07:26:50;;;;;;;;;;;12.30;99.90;;;;;;5081498;28;20379;-71
2023/06/22 07:29:17;;;;;;;;;;;12.20;99.90;;;;;;5074789;28;20376;-63
2023/06/22 07:31:45;;;;;;;;;;;12.20;99.90;;;;;;5074976;28;19909;-62
2023/06/22 07:34:11;;;;;;;;;;;12.20;99.90;;;;;;5074829;28;19965;-70
2023/06/22 07:36:38;;;;;;;;;;;12.20;99.90;;;;;;5074685;28;19939;-65
2023/06/22 07:39:05;;;;;;;;;;;12.20;99.90;;;;;;5074937;28;19916;-64
2023/06/22 07:41:32;;;;;;;;;;;12.20;99.90;;;;;;5092770;28;19912;-66
2023/06/22 07:43:58;;;;;;;;;;;12.20;99.90;;;;;;5094950;28;20292;-68
2023/06/22 07:46:25;;;;;;;;;;;12.20;99.90;;;;;;5094913;28;19936;-63
2023/06/22 07:48:52;;;;;;;;;;;12.20;99.90;;;;;;5084890;28;19942;-73
2023/06/22 07:51:18;;;;;;;;;;;12.20;99.90;;;;;;5074410;28;20496;-64
2023/06/22 07:53:45;;;;;;;;;;;12.20;99.90;;;;;;5079713;28;19912;-70
2023/06/22 07:56:12;;;;;;;;;;;12.10;99.90;;;;;;5094848;28;19915;-71
2023/06/22 07:58:39;;;;;;;;;;;12.10;99.90;;;;;;5094939;28;19912;-71
2023/06/22 08:01:06;;;;;;;;;;;12.20;99.90;;;;;;5089391;28;19916;-70
2023/06/22 08:03:32;;;;;;;;;;;12.10;99.90;;;;;;5073913;28;19954;-62
2023/06/22 08:05:59;;;;;;;;;;;12.10;99.90;;;;;;5074350;28;19912;-62
2023/06/22 08:08:26;;;;;;;;;;;12.10;99.90;;;;;;5077615;28;20472;-64
2023/06/22 08:10:52;;;;;;;;;;;12.10;99.90;;;;;;5083360;28;19938;-70
2023/06/22 08:13:19;;;;;;;;;;;12.20;99.90;;;;;;5074390;28;19912;-66
2023/06/22 08:15:45;;;;;;;;;;;12.20;99.90;;;;;;5079796;28;20380;-66
2023/06/22 08:18:12;;;;;;;;;;;12.00;99.90;;;;;;5094143;28;19954;-67
2023/06/22 08:20:39;;;;;;;;;;;12.10;99.90;;;;;;5094206;28;19908;-73
2023/06/22 08:23:06;;;;;;;;;;;12.00;99.90;;;;;;5083322;28;19919;-67
2023/06/22 08:25:33;;;;;;;;;;;12.10;99.90;;;;;;5073481;28;19931;-65
2023/06/22 08:28:01;;;;;;;;;;;12.10;99.90;;;;;;5090520;28;19923;-67
2023/06/22 08:30:27;;;;;;;;;;;12.10;99.90;;;;;;5064208;28;19923;-67
2023/06/22 08:32:55;;;;;;;;;;;12.00;99.90;;;;;;5079089;28;19919;-65
2023/06/22 08:35:24;;;;;;;;;;;12.00;99.90;;;;;;5090998;28;19908;-66
2023/06/22 08:37:55;;;;;;;;;;;12.00;99.90;;;;;;5093599;28;20272;-67
2023/06/22 08:40:22;;;;;;;;;;;11.90;99.90;;;;;;5093922;28;20949;-66
2023/06/22 08:42:49;;;;;;;;;;;11.90;99.90;;;;;;5089189;28;19982;-67
2023/06/22 08:45:16;;;;;;;;;;;11.80;99.90;;;;;;5083996;28;20417;-71
2023/06/22 08:47:42;;;;;;;;;;;11.80;99.90;;;;;;5085104;28;19966;-66
2023/06/22 08:50:10;;;;;;;;;;;11.80;99.90;;;;;;5073251;28;19966;-70
2023/06/22 08:52:37;;;;;;;;;;;11.80;99.90;;;;;;5073270;28;19935;-67
2023/06/22 08:55:04;;;;;;;;;;;11.70;99.90;;;;;;5093435;28;19912;-66
2023/06/22 08:57:32;;;;;;;;;;;11.70;99.90;;;;;;5092980;28;20262;-73
2023/06/22 08:59:59;;;;;;;;;;;11.70;99.90;;;;;;5093377;28;19911;-69
2023/06/22 09:02:29;;;;;;;;;;;11.70;99.90;;;;;;5093448;28;19962;-70
2023/06/22 09:04:57;;;;;;;;;;;11.70;99.90;;;;;;5085068;28;19912;-70
2023/06/22 09:07:25;;;;;;;;;;;11.70;99.90;;;;;;5092695;28;19967;-75
2023/06/22 09:09:52;;;;;;;;;;;11.80;99.90;;;;;;5093296;28;20327;-71
2023/06/22 09:12:19;;;;;;;;;;;11.70;99.90;;;;;;5093270;28;19991;-75
2023/06/22 09:14:47;;;;;;;;;;;11.70;99.90;;;;;;5074855;28;19919;-66
2023/06/22 09:17:14;;;;;;;;;;;11.60;99.90;;;;;;5074833;28;20288;-69
2023/06/22 09:19:40;;;;;;;;;;;11.60;99.90;;;;;;5072951;28;19969;-66
2023/06/22 09:22:07;;;;;;;;;;;11.60;99.90;;;;;;5072889;28;20353;-72
2023/06/22 09:24:33;;;;;;;;;;;11.70;99.90;;;;;;5073615;28;19950;-69
2023/06/22 09:27:00;;;;;;;;;;;11.70;99.90;;;;;;5072887;28;19912;-72
2023/06/22 09:29:27;;;;;;;;;;;11.70;99.90;;;;;;5072788;28;19921;-62
2023/06/22 09:31:54;;;;;;;;;;;11.80;99.90;;;;;;5072828;28;19915;-68
2023/06/22 09:34:21;;;;;;;;;;;11.70;99.90;;;;;;5073148;28;19936;-69
2023/06/22 09:36:48;;;;;;;;;;;11.70;99.90;;;;;;5072779;28;20294;-65
2023/06/22 09:39:14;;;;;;;;;;;11.70;99.90;;;;;;5072677;28;19909;-64
2023/06/22 09:41:41;;;;;;;;;;;11.70;99.90;;;;;;5074658;28;20448;-71
2023/06/22 09:44:07;;;;;;;;;;;11.70;99.90;;;;;;5089808;28;20010;-72
2023/06/22 09:46:34;;;;;;;;;;;11.80;99.90;;;;;;5092532;28;19919;-70
2023/06/22 09:49:01;;;;;;;;;;;11.70;99.90;;;;;;5092531;28;19923;-74
2023/06/22 09:51:27;;;;;;;;;;;11.60;99.90;;;;;;5093028;28;20378;-68
2023/06/22 09:53:54;;;;;;;;;;;11.60;99.90;;;;;;5092660;28;19912;-72
2023/06/22 09:56:21;;;;;;;;;;;11.50;99.90;;;;;;5092309;28;19912;-72
2023/06/22 09:58:50;;;;;;;;;;;11.50;99.90;;;;;;5092391;28;19944;-68
2023/06/22 10:01:16;;;;;;;;;;;11.60;99.90;;;;;;5092598;28;19969;-71
2023/06/22 10:03:43;;;;;;;;;;;11.50;99.90;;;;;;5089285;28;20297;-64
2023/06/22 10:06:10;;;;;;;;;;;11.50;99.90;;;;;;5090825;28;19919;-73
2023/06/22 10:08:36;;;;;;;;;;;11.60;99.90;;;;;;5073317;28;20442;-70
2023/06/22 10:11:04;;;;;;;;;;;11.50;99.90;;;;;;5071647;28;19935;-69
2023/06/22 10:13:30;;;;;;;;;;;11.50;99.90;;;;;;5075581;28;19908;-66
2023/06/22 10:15:57;;;;;;;;;;;11.50;99.90;;;;;;5091803;28;20105;-70
2023/06/22 10:18:24;;;;;;;;;;;11.60;99.90;;;;;;5073580;28;19913;-69
2023/06/22 10:20:53;;;;;;;;;;;11.50;99.90;;;;;;5071299;28;20005;-69
2023/06/22 10:23:20;;;;;;;;;;;11.50;99.90;;;;;;5073672;28;19958;-72
2023/06/22 10:25:47;;;;;;;;;;;11.50;99.90;;;;;;5089828;28;19913;-68
2023/06/22 10:28:14;;;;;;;;;;;11.50;99.90;;;;;;5092883;28;19912;-69
2023/06/22 10:30:44;;;;;;;;;;;11.60;99.90;;;;;;5080612;28;20347;-69
2023/06/22 10:33:11;;;;;;;;;;;11.50;99.90;;;;;;5069547;28;20029;-70
2023/06/22 10:35:37;;;;;;;;;;;11.50;99.90;;;;;;5082955;28;19938;-68
2023/06/22 10:38:04;;;;;;;;;;;11.60;99.90;;;;;;5083139;28;19920;-68
2023/06/22 10:40:31;;;;;;;;;;;11.50;99.90;;;;;;5088971;28;20368;-67
2023/06/22 10:42:58;;;;;;;;;;;11.50;99.90;;;;;;5088768;28;19920;-67
2023/06/22 10:45:24;;;;;;;;;;;11.50;99.90;;;;;;5089590;28;19919;-65
2023/06/22 10:47:51;;;;;;;;;;;11.50;99.90;;;;;;5091492;28;19920;-67
2023/06/22 10:50:20;;;;;;;;;;;11.60;99.90;;;;;;5090840;28;20621;-69
2023/06/22 10:52:46;;;;;;;;;;;11.50;99.90;;;;;;5090859;28;19921;-70
2023/06/22 10:55:13;;;;;;;;;;;11.60;99.90;;;;;;5094279;28;20361;-72
2023/06/22 10:57:43;;;;;;;;;;;11.60;99.90;;;;;;5094513;28;19954;-72
2023/06/22 11:00:11;;;;;;;;;;;11.60;99.90;;;;;;5092009;28;19913;-70
2023/06/22 11:02:37;;;;;;;;;;;11.60;99.90;;;;;;5094355;28;19912;-72
2023/06/22 11:05:04;;;;;;;;;;;11.60;99.90;;;;;;5079800;28;19916;-65
2023/06/22 11:07:32;;;;;;;;;;;11.60;99.90;;;;;;5094768;28;20360;-66
2023/06/22 11:09:59;;;;;;;;;;;11.70;99.90;;;;;;5091400;28;19924;-67
2023/06/22 11:12:25;;;;;;;;;;;11.50;99.90;;;;;;5093795;28;19912;-68
2023/06/22 11:14:52;;;;;;;;;;;11.60;99.90;;;;;;5091648;28;19919;-65
2023/06/22 11:17:19;;;;;;;;;;;11.60;99.90;;;;;;5094324;28;19923;-65
2023/06/22 11:19:45;;;;;;;;;;;11.50;99.90;;;;;;5093090;28;19919;-67
2023/06/22 11:22:13;;;;;;;;;;;11.50;99.90;;;;;;5094680;28;20269;-65
2023/06/22 11:24:40;;;;;;;;;;;11.50;99.90;;;;;;5093197;28;19912;-65
2023/06/22 11:27:06;;;;;;;;;;;11.40;99.90;;;;;;5093591;28;19931;-67
2023/06/22 11:29:33;;;;;;;;;;;11.40;99.90;;;;;;5093642;28;20529;-66
2023/06/22 11:32:00;;;;;;;;;;;11.50;99.90;;;;;;5093768;28;19908;-66
2023/06/22 11:34:27;;;;;;;;;;;11.40;99.90;;;;;;5094071;28;19916;-65
2023/06/22 11:36:54;;;;;;;;;;;11.40;99.90;;;;;;5094816;28;19935;-65
2023/06/22 11:39:21;;;;;;;;;;;11.40;99.90;;;;;;5094424;28;19964;-66
2023/06/22 11:41:48;;;;;;;;;;;11.40;99.90;;;;;;5094622;28;19915;-66
2023/06/22 11:44:15;;;;;;;;;;;11.40;99.90;;;;;;5080397;28;20404;-64
2023/06/22 11:46:41;;;;;;;;;;;11.40;99.90;;;;;;5074574;28;20396;-66
2023/06/22 11:49:08;;;;;;;;;;;11.30;99.90;;;;;;5074431;28;19917;-65
2023/06/22 11:51:35;;;;;;;;;;;11.40;99.90;;;;;;5074659;28;19962;-65
2023/06/22 11:54:03;;;;;;;;;;;11.30;99.90;;;;;;5086583;28;19920;-66
2023/06/22 11:56:31;;;;;;;;;;;11.30;99.90;;;;;;5074142;28;19914;-66
2023/06/22 11:58:58;;;;;;;;;;;11.30;99.90;;;;;;5074162;28;19908;-65
2023/06/22 12:01:24;;;;;;;;;;;11.30;99.90;;;;;;5074524;28;19916;-65
2023/06/22 12:03:51;;;;;;;;;;;11.20;99.90;;;;;;5074592;28;20046;-66
2023/06/22 12:06:17;;;;;;;;;;;11.30;99.90;;;;;;5074114;28;20344;-65
2023/06/22 12:08:44;;;;;;;;;;;11.20;99.90;;;;;;5073958;28;20003;-66
2023/06/22 12:11:11;;;;;;;;;;;11.30;99.90;;;;;;5074350;28;20004;-66
2023/06/22 12:13:37;;;;;;;;;;;11.30;99.90;;;;;;5086230;28;19935;-66
2023/06/22 12:16:04;;;;;;;;;;;11.20;99.90;;;;;;5086000;28;19939;-66
2023/06/22 12:18:31;;;;;;;;;;;11.20;99.90;;;;;;5073796;28;19913;-66
2023/06/22 12:20:57;;;;;;;;;;;11.20;99.90;;;;;;5078645;28;19912;-66
2023/06/22 12:23:24;;;;;;;;;;;11.10;99.90;;;;;;5076489;28;20256;-68
2023/06/22 12:25:51;;;;;;;;;;;11.20;99.90;;;;;;5094213;28;20003;-68
2023/06/22 12:28:17;;;;;;;;;;;11.20;99.90;;;;;;5094015;28;19920;-67
2023/06/22 12:30:44;;;;;;;;;;;11.10;99.90;;;;;;5094003;28;19957;-66
2023/06/22 12:33:11;;;;;;;;;;;11.20;99.90;;;;;;5091877;28;19908;-67
2023/06/22 12:35:38;;;;;;;;;;;11.10;99.90;;;;;;5093624;28;19954;-67
2023/06/22 12:38:06;;;;;;;;;;;11.20;99.90;;;;;;5079328;28;19915;-67
2023/06/22 12:40:33;;;;;;;;;;;11.10;99.90;;;;;;5055861;28;20007;-67
2023/06/22 12:42:59;;;;;;;;;;;11.10;99.90;;;;;;5073400;28;19944;-68
2023/06/22 12:45:28;;;;;;;;;;;11.20;99.90;;;;;;5073632;28;19915;-66
2023/06/22 12:47:55;;;;;;;;;;;11.20;99.90;;;;;;5073445;28;19935;-65
2023/06/22 12:50:22;;;;;;;;;;;11.30;99.90;;;;;;5072754;28;20434;-66
2023/06/22 12:52:48;;;;;;;;;;;11.20;99.90;;;;;;5092741;28;19908;-64
2023/06/22 12:55:15;;;;;;;;;;;11.30;99.90;;;;;;5093307;28;19909;-66
2023/06/22 12:57:41;;;;;;;;;;;11.30;99.90;;;;;;5090849;28;20304;-65
2023/06/22 13:00:10;;;;;;;;;;;11.30;99.90;;;;;;5074054;28;19920;-66
2023/06/22 13:02:36;;;;;;;;;;;11.30;99.90;;;;;;5073145;28;19913;-66
2023/06/22 13:05:05;;;;;;;;;;;11.30;99.90;;;;;;5073170;28;20430;-65
2023/06/22 13:07:31;;;;;;;;;;;11.30;99.90;;;;;;5073201;28;19914;-65
2023/06/22 13:09:58;;;;;;;;;;;11.30;99.90;;;;;;5073001;28;19917;-65
2023/06/22 13:12:25;;;;;;;;;;;11.20;99.90;;;;;;5073181;28;19915;-65
2023/06/22 13:14:51;;;;;;;;;;;11.20;99.90;;;;;;5072959;28;19909;-64
2023/06/22 13:17:18;;;;;;;;;;;11.20;99.90;;;;;;5073143;28;20277;-65
2023/06/22 13:19:44;;;;;;;;;;;11.20;99.90;;;;;;5074071;28;19962;-65
2023/06/22 13:22:29;;;;;;;;;;;11.20;99.90;;;;;;5072556;28;20361;-65
2023/06/22 13:24:55;;;;;;;;;;;11.20;99.90;;;;;;5072900;28;20285;-66
2023/06/22 13:27:22;;;;;;;;;;;11.20;99.90;;;;;;5081468;28;20007;-67
2023/06/22 13:29:49;;;;;;;;;;;11.30;99.90;;;;;;5093010;28;19924;-66
2023/06/22 13:32:16;;;;;;;;;;;11.20;99.90;;;;;;5092822;28;19908;-67
2023/06/22 13:34:42;;;;;;;;;;;11.30;99.90;;;;;;5092938;28;19915;-64
2023/06/22 13:37:09;;;;;;;;;;;11.20;99.90;;;;;;5092926;28;19912;-65
2023/06/22 13:39:36;;;;;;;;;;;11.30;99.90;;;;;;5080389;28;20007;-65
2023/06/22 13:42:02;;;;;;;;;;;11.20;99.90;;;;;;5072953;28;20334;-66
2023/06/22 13:44:29;;;;;;;;;;;11.30;99.90;;;;;;5072688;28;20361;-65
2023/06/22 13:46:56;;;;;;;;;;;11.30;99.90;;;;;;5077444;28;19951;-65
2023/06/22 13:49:22;;;;;;;;;;;11.30;99.90;;;;;;5092645;28;19916;-67
2023/06/22 13:51:50;;;;;;;;;;;11.30;99.90;;;;;;5092856;28;19958;-66
2023/06/22 13:54:17;;;;;;;;;;;11.30;99.90;;;;;;5093059;28;20277;-68
2023/06/22 13:56:43;;;;;;;;;;;11.30;99.90;;;;;;5075211;28;20246;-68
2023/06/22 13:59:10;;;;;;;;;;;11.30;99.90;;;;;;5082660;28;19955;-68
2023/06/22 14:01:38;;;;;;;;;;;11.30;99.90;;;;;;5092159;28;19913;-68
2023/06/22 14:04:05;;;;;;;;;;;11.30;99.90;;;;;;5092451;28;20337;-68
2023/06/22 14:06:32;;;;;;;;;;;11.30;99.90;;;;;;5092350;28;20353;-65
2023/06/22 14:08:58;;;;;;;;;;;11.30;99.90;;;;;;5092580;28;19966;-68
2023/06/22 14:11:25;;;;;;;;;;;11.20;99.90;;;;;;5092321;28;19908;-65
2023/06/22 14:13:52;;;;;;;;;;;11.30;99.90;;;;;;5092623;28;20014;-65
2023/06/22 14:16:19;;;;;;;;;;;11.30;99.90;;;;;;5056924;28;19962;-66